WetterOnline ( https://www.wetteronline.de )

Wetter aktuell Messina

Aktuelles Wetter: Messina (51m)

6-stündlich | Neueste Meldungen
Ortszeit Temperatur Wetter
Sa, 05.12. 1:00 16.0° C leicht bewölkt
Fr, 04.12. 19:00 14.0° C leicht bewölkt
Fr, 04.12. 13:00 16.4° C leicht bewölkt
Fr, 04.12. 7:00 12.8° C leichter Regen
Fr, 04.12. 1:00 14.2° C wolkig
Do, 03.12. 19:00 12.2° C leichter Regen
Do, 03.12. 13:00 14.0° C Gewitter
Do, 03.12. 7:00 17.0° C wolkig
Ortszeit Temperatur Wetter
Sa, 05.12. 3:00 16.0° C leicht bewölkt
Sa, 05.12. 2:55 16° C leicht bewölkt
Sa, 05.12. 2:00 16.0° C leicht bewölkt
Sa, 05.12. 1:55 16° C leicht bewölkt
Sa, 05.12. 1:00 16.0° C leicht bewölkt
Sa, 05.12. 0:55 16° C leicht bewölkt
Sa, 05.12. 0:00 15.8° C leicht bewölkt
Fr, 04.12. 23:55 16° C leicht bewölkt
Fr, 04.12. 23:00 15.4° C leicht bewölkt
Ortszeit Relative Feuchte Sichtweite
Sa, 05.12. 1:00 57% 13 km
Fr, 04.12. 19:00 65% 10 km
Fr, 04.12. 13:00 40% 20 km
Fr, 04.12. 7:00 70% 14 km
Fr, 04.12. 1:00 74% 10 km
Do, 03.12. 19:00 82% 8 km
Do, 03.12. 13:00 100% 3.0 km
Do, 03.12. 7:00 62% 16 km
Ortszeit Relative Feuchte Sichtweite
Sa, 05.12. 3:00 55% 10 km
Sa, 05.12. 2:55 55% >10 km
Sa, 05.12. 2:00 58% 10 km
Sa, 05.12. 1:55 59% >10 km
Sa, 05.12. 1:00 57% 13 km
Sa, 05.12. 0:55 59% >10 km
Sa, 05.12. 0:00 60% 10 km
Fr, 04.12. 23:55 59% >10 km
Fr, 04.12. 23:00 58% 10 km
Ortszeit Niederschlagsmenge Niederschlagsart
Sa, 05.12. 1:00 0.0 l/m2 in 6 Std. -
Fr, 04.12. 19:00 0.2 l/m2 in 12 Std. -
Fr, 04.12. 13:00 0.2 l/m2 in 6 Std. Regen
Fr, 04.12. 7:00 6 l/m2 in 12 Std. Regen
Fr, 04.12. 1:00 5 l/m2 in 6 Std. Regen
Do, 03.12. 19:00 61 l/m2 in 12 Std. Gewitter, Regen
Do, 03.12. 13:00 32 l/m2 in 6 Std. Gewitter, Regen
Do, 03.12. 7:00 0.0 l/m2 in 12 Std. -
Ortszeit Niederschlagsmenge Niederschlagsart
Sa, 05.12. 3:00 keine Meldung -
Sa, 05.12. 2:55 keine Meldung -
Sa, 05.12. 2:00 keine Meldung -
Sa, 05.12. 1:55 keine Meldung -
Sa, 05.12. 1:00 keine Meldung -
Sa, 05.12. 0:55 keine Meldung -
Sa, 05.12. 0:00 keine Meldung -
Fr, 04.12. 23:55 keine Meldung -
Fr, 04.12. 23:00 keine Meldung -
Ortszeit Stärke Spitze Richtung
km/h Bft. km/h Grad Sektor
Sa, 05.12. 1:00 19 3 - 210° SW
Fr, 04.12. 19:00 4 1 - 260° W
Fr, 04.12. 13:00 7 2 - 300° NW
Fr, 04.12. 7:00 17 3 - 290° W
Fr, 04.12. 1:00 11 2 - 330° NW
Do, 03.12. 19:00 28 4 - 290° W
Do, 03.12. 13:00 4 1 - - -
Do, 03.12. 7:00 19 3 - 200° S
Ortszeit Stärke Spitze Richtung
km/h Bft. km/h Grad Sektor
Sa, 05.12. 3:00 22 4 - 350° N
Sa, 05.12. 2:55 22 4 43 350° N
Sa, 05.12. 2:00 19 3 - 210° SW
Sa, 05.12. 1:55 19 3 - 210° SW
Sa, 05.12. 1:00 19 3 - 210° SW
Sa, 05.12. 0:55 19 3 37 210° SW
Sa, 05.12. 0:00 19 3 - 200° S
Fr, 04.12. 23:55 19 3 - 200° S
Fr, 04.12. 23:00 15 3 - 220° SW
Ortszeit Untergrenze Bedeckung Gattung
total tief tief mittel hoch
Sa, 05.12. 1:00 1500 m 3/8 1/8 Cu Ac -
Fr, 04.12. 19:00 900 m 3/8 3/8 Sc - -
Fr, 04.12. 13:00 750 m 4/8 4/8 Cu - -
Fr, 04.12. 7:00 600 m 6/8 6/8 Cu As -
Fr, 04.12. 1:00 900 m 5/8 3/8 Sc As -
Do, 03.12. 19:00 600 m 8/8 8/8 Cu - -
Do, 03.12. 13:00 600 m 8/8 8/8 Cb - -
Do, 03.12. 7:00 450 m 7/8 5/8 Cu As Cs
Ortszeit Bedeckungsgrad in Achtel und Wolkenuntergrenze
Sa, 05.12. 3:00 1(1500m)
Sa, 05.12. 2:55 1-2(1500m)
Sa, 05.12. 2:00 1(1500m)
Sa, 05.12. 1:55 1-2(1500m)
Sa, 05.12. 1:00 1(1500m)
Sa, 05.12. 0:55 1-2(1500m)
Sa, 05.12. 0:00 1(1500m)
Fr, 04.12. 23:55 1-2(1500m)
Fr, 04.12. 23:00 3(2400m)
Ortszeit Luftdruck NN (hPa) Tendenz (hPa in 3 Std.)
Sa, 05.12. 1:00 1009 0,0
Fr, 04.12. 19:00 1007 + 0,7
Fr, 04.12. 13:00 1007 + 0,1
Fr, 04.12. 7:00 1005 + 0,7
Fr, 04.12. 1:00 1005 0,0
Do, 03.12. 19:00 1004 - 0,1
Do, 03.12. 13:00 1005 - 1,8
Do, 03.12. 7:00 1007 - 0,3
Ortszeit Luftdruck NN (hPa) Tendenz (hPa in 3 Std.)
Sa, 05.12. 3:00 1008 - 0,6
Sa, 05.12. 2:55 1007 keine Meldung
Sa, 05.12. 2:00 1008 - 0,4
Sa, 05.12. 1:55 1008 keine Meldung
Sa, 05.12. 1:00 1009 0,0
Sa, 05.12. 0:55 1008 keine Meldung
Sa, 05.12. 0:00 1009 + 0,1
Fr, 04.12. 23:55 1008 keine Meldung
Fr, 04.12. 23:00 1009 + 0,6
Ortszeit Schneehöhe (cm)
Sa, 05.12. 1:00 -
Fr, 04.12. 19:00 -
Fr, 04.12. 13:00 -
Fr, 04.12. 7:00 0
Fr, 04.12. 1:00 -
Do, 03.12. 19:00 -
Do, 03.12. 13:00 -
Do, 03.12. 7:00 0
Ortszeit Schneehöhe (cm)
Sa, 05.12. 3:00 -
Sa, 05.12. 2:55 -
Sa, 05.12. 2:00 -
Sa, 05.12. 1:55 -
Sa, 05.12. 1:00 -
Sa, 05.12. 0:55 -
Sa, 05.12. 0:00 -
Fr, 04.12. 23:55 -
Fr, 04.12. 23:00 -
Link zu dieser Seite / Seite empfehlen

Das Wetter in ...